XNU weather

Nouna Airport
Nouna, Kossi, Burkina Faso

Public forecast

Using degrees Celsius for public forecast. Weather courtesy of forecast.io.

Closest aviation weather report (METAR) to Nouna Airport

Report is more than 6 hours old.

Closest report is Koutiala Airport, 96.3 nm (178.4 km) WSW. Retrieved 2020/01/06 12:00 UTC (23 days ago):

GAKO 061200Z 06006KT CAVOK 27/06 Q1010

Closest aviation forecast (TAF) to Nouna Airport

Closest forecast is Bobo Dioulasso Airport, 99.3 nm (183.9 km) SSW. Retrieved 2020-01-29 00:03 UTC (4 hours ago):

TAF DFOO 282300Z 2900/2924 04010KT 4000 DU NSC BECMG 2904/2906 2500 DU BECMG 2914/2916 4000 DU